Thursday, April 17, 2014
09:35 UTC
  |  Log In   |  Register Free
Airport Search:

Oroville Municipal Airport
(KOVE)

Oroville Municipal Airport Diagram
No Airport Diagram Available

FAA data valid effective April 3, 2014 until May 29, 2014 (unless otherwise noted).

 
 
 
 
 
 
 
 
 
 
 
 
 
 

Current Aviation Weather for Oroville Municipal Airport (KOVE)

The most recent METAR observation for KOVE was updated at: 0853 UTC
METAR Summary (Translated METAR)
KOVE
170853Z AUTO 00000KT 10SM CLR 16/09 A2980 RMK AO2 SLP092 T01610094 58005 $
KCIC
(21.4 nm NW from KOVE)
170855Z AUTO 00000KT 10SM CLR 17/08 A2979 RMK AO1
TAF
No TAF information found within 50 nm of KOVE
  Airport Weather Conditions for KOVE

 Current Weather at OVE
61° F
Fair
North winds at 0.0 mph
OVE NOAA Radar

Pressure: 29.80 in
Humidity: 65%
Wind: Calm
Dew Point: 48.9°F
Visibility: 10.00 mi


Airport Weather Forecast for KOVE

Translated METAR and TAF for KOVE
Translated METAR for KOVE (0935 UTC 17 April 2014)
found at http://aviationweather.gov/adds/metars/
 
METAR text: KOVE 170853Z AUTO 00000KT 10SM CLR 16/09 A2980 RMK AO2 SLP092 T01610094 58005 $
Conditions at: KOVE (OROVILLE , CA, US) observed 0853 UTC 17 April 2014
Temperature: 16.1°C (61°F)
Dewpoint: 9.4°C (49°F) [RH = 64%]
Pressure (altimeter): 29.80 inches Hg (1009.2 mb)
[Sea-level pressure: 1009.2 mb]
Winds: calm
Visibility: 10 or more miles (16+ km)
Ceiling: at least 12,000 feet AGL
Clouds: sky clear below 12,000 feet AGL
Weather:
SOME DATA ABOVE MAY BE INACCURATE!!!
"$" is an indication the sensor requires maintenance
Translated TAF for KOVE

There is no translated TAF available for this airport

Find All Airport Services Find A Hotel Find A Rental Car Find A Golf Course Find A Restaurant $100 Hamburger



FBO's on the Field
FBO Company Facility Photos Services Transportation Aviation Fuel Prices: Prices include tax
Catering Weather Repair Courtesy Rental Type 100LL JetA JetA+ MOGAS 8087
 
Oroville Municipal Airport

This FBO has not yet been rated
FS:Epic
Last Updated: Mar-18
Login to update fuel prices
SS:
Contact Oroville Municipal AirportMore FBO Information
 
Add another FBO Facility Photos Catering Weather Repair Courtesy Rental Type 100LL JetA JetA+ MOGAS 8087
Services Transportation Aviation Fuel Prices: Prices include tax


GlobalAir.com Airport Resource Center model-print
model-print
model-print
model-print